Time;durP1;ratioP1;P1;durP2;ratioP2;P2;SDS_P1;SDS_P2;PMS_P1;PMS_P2;Temp;Humidity;BMP_temperature;BMP_pressure;BME280_temperature;BME280_humidity;BME280_pressure;Samples;Min_cycle;Max_cycle;Signal;HPM_P1;HPM_P2
2022/11/22 00:00:33;;;;;;;12.30;7.60;;;;;20.20;98135.00;;;;2087301;28;20886;-47
2022/11/22 00:01:33;;;;;;;10.83;7.93;;;;;20.30;98136.00;;;;2083779;28;20217;-48
2022/11/22 00:02:34;;;;;;;10.07;8.20;;;;;20.20;98131.00;;;;2081106;28;21015;-48
2022/11/22 00:03:34;;;;;;;10.23;7.83;;;;;20.20;98139.00;;;;2079462;28;20308;-47
2022/11/22 00:04:35;;;;;;;10.43;7.20;;;;;20.20;98133.00;;;;2079096;28;20222;-48
2022/11/22 00:05:36;;;;;;;10.73;7.63;;;;;20.20;98131.00;;;;2079380;28;20312;-50
2022/11/22 00:06:36;;;;;;;10.70;7.43;;;;;20.20;98128.00;;;;2079232;28;20809;-50
2022/11/22 00:07:37;;;;;;;9.40;6.90;;;;;20.20;98135.00;;;;2079083;28;20278;-49
2022/11/22 00:08:37;;;;;;;8.87;6.33;;;;;20.20;98136.00;;;;2079083;28;20252;-49
2022/11/22 00:09:37;;;;;;;9.97;6.60;;;;;20.20;98132.00;;;;2079202;28;20561;-48
2022/11/22 00:10:37;;;;;;;7.63;6.50;;;;;20.20;98137.00;;;;2079362;28;20988;-49
2022/11/22 00:11:38;;;;;;;8.27;6.43;;;;;20.10;98136.00;;;;2079270;28;20775;-48
2022/11/22 00:12:38;;;;;;;10.53;6.10;;;;;20.20;98133.00;;;;2078214;28;20213;-48
2022/11/22 00:13:39;;;;;;;8.53;6.60;;;;;20.20;98129.00;;;;2078703;28;20221;-50
2022/11/22 00:14:39;;;;;;;8.53;6.07;;;;;20.20;98138.00;;;;2078712;28;20213;-48
2022/11/22 00:15:39;;;;;;;7.10;6.10;;;;;20.10;98122.00;;;;2079373;28;20254;-48
2022/11/22 00:16:40;;;;;;;6.80;5.70;;;;;20.10;98132.00;;;;2078900;28;20221;-48
2022/11/22 00:17:40;;;;;;;7.83;6.23;;;;;20.10;98134.00;;;;2079209;28;20224;-49
2022/11/22 00:18:40;;;;;;;6.67;5.07;;;;;20.10;98126.00;;;;2080445;28;20248;-47
2022/11/22 00:19:41;;;;;;;7.87;5.50;;;;;20.10;98127.00;;;;2087546;28;20209;-48
2022/11/22 00:20:41;;;;;;;6.40;5.30;;;;;20.10;98124.00;;;;2086820;28;20267;-48
2022/11/22 00:21:41;;;;;;;7.17;5.60;;;;;20.10;98127.00;;;;2079674;28;20213;-50
2022/11/22 00:22:42;;;;;;;8.87;5.77;;;;;20.10;98122.00;;;;2078265;28;20218;-46
2022/11/22 00:23:42;;;;;;;7.87;5.80;;;;;20.10;98121.00;;;;2079047;28;20213;-48
2022/11/22 00:24:45;;;;;;;7.03;5.50;;;;;20.10;98125.00;;;;2081904;28;20227;-47
2022/11/22 00:25:45;;;;;;;6.10;4.82;;;;;20.10;98124.00;;;;2079619;28;20282;-48
2022/11/22 00:26:45;;;;;;;6.67;4.80;;;;;20.10;98119.00;;;;2079258;28;20301;-48
2022/11/22 00:27:46;;;;;;;9.63;5.40;;;;;20.10;98124.00;;;;2078600;28;20775;-47
2022/11/22 00:28:46;;;;;;;5.57;4.80;;;;;20.00;98111.00;;;;2079207;28;20693;-48
2022/11/22 00:29:46;;;;;;;6.43;5.10;;;;;20.10;98116.00;;;;2077981;28;20213;-49
2022/11/22 00:30:47;;;;;;;8.23;5.37;;;;;20.10;98115.00;;;;2079284;28;20217;-48
2022/11/22 00:31:47;;;;;;;6.10;4.50;;;;;20.10;98119.00;;;;2078794;28;20233;-49
2022/11/22 00:32:47;;;;;;;6.13;4.80;;;;;20.10;98120.00;;;;2078110;28;20221;-47
2022/11/22 00:33:48;;;;;;;6.50;4.53;;;;;20.10;98119.00;;;;2079084;28;20292;-50
2022/11/22 00:34:48;;;;;;;7.20;5.00;;;;;20.10;98115.00;;;;2079126;28;20236;-47
2022/11/22 00:35:48;;;;;;;6.20;4.87;;;;;20.10;98125.00;;;;2077063;28;20213;-48
2022/11/22 00:36:49;;;;;;;4.53;4.00;;;;;20.00;98118.00;;;;2086711;28;20224;-47
2022/11/22 00:37:49;;;;;;;7.37;5.00;;;;;20.10;98116.00;;;;2078827;28;20325;-49
2022/11/22 00:38:49;;;;;;;7.10;4.30;;;;;20.00;98115.00;;;;2078763;28;20222;-48
2022/11/22 00:39:50;;;;;;;7.43;4.23;;;;;20.00;98110.00;;;;2079321;28;20209;-49
2022/11/22 00:40:50;;;;;;;5.90;3.90;;;;;20.00;98105.00;;;;2079300;28;20217;-49
2022/11/22 00:41:51;;;;;;;6.10;4.17;;;;;20.00;98109.00;;;;2085240;28;20220;-47
2022/11/22 00:42:51;;;;;;;5.60;4.70;;;;;20.00;98100.00;;;;2087345;28;20236;-46
2022/11/22 00:43:51;;;;;;;4.33;3.40;;;;;20.00;98105.00;;;;2086017;28;20208;-47
2022/11/22 00:44:52;;;;;;;6.03;3.67;;;;;20.00;98110.00;;;;2078454;28;20217;-47
2022/11/22 00:45:52;;;;;;;4.60;3.90;;;;;20.10;98097.00;;;;2078380;28;20236;-47
2022/11/22 00:46:52;;;;;;;4.90;3.87;;;;;20.00;98100.00;;;;2086403;28;20215;-49
2022/11/22 00:47:53;;;;;;;4.20;3.50;;;;;20.00;98101.00;;;;2083263;28;20221;-52
2022/11/22 00:48:53;;;;;;;5.07;4.00;;;;;20.00;98075.00;;;;2086553;28;20220;-47
2022/11/22 00:49:53;;;;;;;5.97;4.10;;;;;20.00;98095.00;;;;2087484;28;20284;-47
2022/11/22 00:50:54;;;;;;;4.83;3.67;;;;;20.00;98103.00;;;;2083231;28;20625;-47
2022/11/22 00:51:55;;;;;;;3.70;3.30;;;;;20.00;98109.00;;;;2078050;28;20575;-48
2022/11/22 00:52:55;;;;;;;4.83;3.93;;;;;20.00;98110.00;;;;2078153;28;20263;-49
2022/11/22 00:53:55;;;;;;;5.00;3.93;;;;;20.00;98112.00;;;;2080480;28;20217;-48
2022/11/22 00:54:56;;;;;;;5.47;3.67;;;;;20.00;98107.00;;;;2086291;28;20240;-46
2022/11/22 00:55:56;;;;;;;3.73;3.13;;;;;20.00;98116.00;;;;2086659;28;20216;-47
2022/11/22 00:56:56;;;;;;;3.33;2.80;;;;;20.00;98114.00;;;;2087141;28;20349;-46
2022/11/22 00:57:57;;;;;;;4.80;3.20;;;;;19.90;98118.00;;;;2087486;28;20225;-47
2022/11/22 00:58:57;;;;;;;4.60;3.10;;;;;19.90;98110.00;;;;2087235;28;20208;-49
2022/11/22 00:59:57;;;;;;;3.17;2.80;;;;;19.90;98112.00;;;;2086416;28;20213;-50
2022/11/22 01:00:58;;;;;;;4.50;2.80;;;;;19.90;98113.00;;;;2079252;28;20270;-46
2022/11/22 01:01:58;;;;;;;4.20;2.77;;;;;19.90;98108.00;;;;2079751;28;20217;-47
2022/11/22 01:02:58;;;;;;;4.27;2.63;;;;;19.90;98108.00;;;;2080859;28;20237;-47
2022/11/22 01:03:59;;;;;;;3.30;3.00;;;;;19.90;98110.00;;;;2078867;28;20210;-46
2022/11/22 01:04:59;;;;;;;3.37;2.60;;;;;19.90;98116.00;;;;2086380;28;20224;-48
2022/11/22 01:05:59;;;;;;;3.63;2.40;;;;;19.90;98118.00;;;;2086553;28;20209;-50
2022/11/22 01:07:00;;;;;;;3.60;2.80;;;;;19.90;98115.00;;;;2087162;28;20212;-50
2022/11/22 01:08:00;;;;;;;3.47;2.60;;;;;19.90;98125.00;;;;2083303;28;20213;-49
2022/11/22 01:09:00;;;;;;;5.53;2.80;;;;;19.90;98116.00;;;;2086950;28;20244;-48
2022/11/22 01:10:01;;;;;;;3.63;2.70;;;;;19.90;98125.00;;;;2087175;28;20214;-48
2022/11/22 01:11:01;;;;;;;3.10;2.40;;;;;19.90;98119.00;;;;2087035;28;20213;-49
2022/11/22 01:12:01;;;;;;;3.83;2.40;;;;;19.90;98120.00;;;;2082630;28;20212;-51
2022/11/22 01:13:03;;;;;;;2.70;2.23;;;;;19.90;98120.00;;;;2079638;28;20267;-50
2022/11/22 01:14:03;;;;;;;3.42;2.55;;;;;19.90;98122.00;;;;2078981;28;20209;-47
2022/11/22 01:15:04;;;;;;;3.40;2.40;;;;;19.90;98126.00;;;;2084691;28;20243;-48
2022/11/22 01:16:06;;;;;;;3.47;2.47;;;;;19.90;98130.00;;;;2086969;28;20337;-48
2022/11/22 01:17:06;;;;;;;3.60;2.40;;;;;19.90;98130.00;;;;2079204;28;20217;-49
2022/11/22 01:18:06;;;;;;;3.00;2.13;;;;;19.90;98127.00;;;;2079029;28;20243;-50
2022/11/22 01:19:07;;;;;;;3.47;2.43;;;;;19.80;98136.00;;;;2079073;28;20205;-48
2022/11/22 01:20:08;;;;;;;4.17;2.67;;;;;19.90;98134.00;;;;2082115;28;20208;-49
2022/11/22 01:21:08;;;;;;;3.17;2.10;;;;;19.80;98126.00;;;;2086892;28;20220;-49
2022/11/22 01:22:08;;;;;;;3.47;2.63;;;;;19.80;98121.00;;;;2081349;28;21015;-50
2022/11/22 01:23:09;;;;;;;4.13;2.33;;;;;19.90;98123.00;;;;2078847;28;20251;-48
2022/11/22 01:24:09;;;;;;;3.90;2.40;;;;;19.90;98120.00;;;;2078013;28;20214;-48
2022/11/22 01:25:09;;;;;;;3.20;2.17;;;;;19.90;98123.00;;;;2081996;28;20205;-48
2022/11/22 01:26:10;;;;;;;3.37;2.20;;;;;19.80;98127.00;;;;2086205;28;20298;-48
2022/11/22 01:27:11;;;;;;;2.67;1.90;;;;;19.80;98126.00;;;;2078175;28;20214;-50
2022/11/22 01:28:11;;;;;;;4.07;2.40;;;;;19.80;98128.00;;;;2078106;28;20484;-49
2022/11/22 01:29:11;;;;;;;4.27;1.97;;;;;19.90;98134.00;;;;2078670;28;20272;-48
2022/11/22 01:30:12;;;;;;;2.43;1.80;;;;;19.90;98129.00;;;;2083477;28;20217;-48
2022/11/22 01:31:12;;;;;;;2.80;2.00;;;;;19.80;98130.00;;;;2083435;28;20848;-48
2022/11/22 01:32:12;;;;;;;4.33;2.40;;;;;19.80;98135.00;;;;2085923;28;20209;-47
2022/11/22 01:33:13;;;;;;;2.63;1.70;;;;;19.80;98138.00;;;;2087132;28;20227;-48
2022/11/22 01:34:13;;;;;;;3.57;2.07;;;;;19.80;98132.00;;;;2086357;28;20287;-49
2022/11/22 01:35:13;;;;;;;3.23;2.20;;;;;19.80;98127.00;;;;2087065;28;20208;-49
2022/11/22 01:36:14;;;;;;;3.40;2.03;;;;;19.80;98123.00;;;;2081259;28;20267;-47
2022/11/22 01:37:14;;;;;;;3.10;1.93;;;;;19.80;98126.00;;;;2078387;28;20213;-48
2022/11/22 01:38:15;;;;;;;3.00;2.20;;;;;19.80;98133.00;;;;2078475;28;20594;-49
2022/11/22 01:39:15;;;;;;;4.40;2.00;;;;;19.80;98139.00;;;;2078721;28;20262;-48
2022/11/22 01:40:15;;;;;;;2.90;1.80;;;;;19.80;98134.00;;;;2078180;28;20217;-50
2022/11/22 01:41:16;;;;;;;2.23;1.70;;;;;19.80;98137.00;;;;2078727;28;20231;-48
2022/11/22 01:42:16;;;;;;;3.20;1.80;;;;;19.80;98137.00;;;;2077809;28;20217;-49
2022/11/22 01:43:24;;;;;;;2.13;1.30;;;;;19.80;98135.00;;;;2078095;28;20308;-48
2022/11/22 01:44:29;;;;;;;2.83;1.50;;;;;19.80;98137.00;;;;2078233;28;20238;-47
2022/11/22 01:45:29;;;;;;;4.82;1.73;;;;;19.80;98129.00;;;;2079035;28;20301;-49
2022/11/22 01:46:34;;;;;;;3.27;1.80;;;;;19.80;98137.00;;;;2086703;28;20268;-49
2022/11/22 01:47:35;;;;;;;3.35;1.60;;;;;19.80;98135.00;;;;2077275;28;20271;-48
2022/11/22 01:48:56;;;;;;;2.57;1.67;;;;;19.80;98138.00;;;;2069641;28;20460;-48
2022/11/22 01:50:01;;;;;;;2.75;1.70;;;;;19.70;98135.00;;;;2080642;28;20217;-50
2022/11/22 01:51:05;;;;;;;3.05;1.77;;;;;19.70;98126.00;;;;2086294;28;20275;-49
2022/11/22 01:52:07;;;;;;;2.95;1.50;;;;;19.70;98118.00;;;;2085347;28;20571;-48
2022/11/22 01:53:35;;;;;;;3.53;1.70;;;;;19.80;98115.00;;;;2085834;28;20221;-47
2022/11/22 01:54:37;;;;;;;3.53;1.75;;;;;19.80;98122.00;;;;2083346;28;20294;-48
2022/11/22 01:55:37;;;;;;;3.15;1.52;;;;;19.80;98129.00;;;;2083677;28;20208;-48
2022/11/22 01:56:37;;;;;;;3.50;1.60;;;;;19.80;98125.00;;;;2078189;28;20244;-50
2022/11/22 01:57:38;;;;;;;2.27;1.60;;;;;19.70;98128.00;;;;2077997;28;20249;-50
2022/11/22 01:58:38;;;;;;;2.80;1.63;;;;;19.70;98129.00;;;;2074788;28;20212;-49
2022/11/22 01:59:41;;;;;;;3.30;1.47;;;;;19.70;98123.00;;;;2084154;28;20227;-48
2022/11/22 02:00:41;;;;;;;2.40;1.67;;;;;19.80;98122.00;;;;2081526;28;20228;-48
2022/11/22 02:01:42;;;;;;;2.43;1.33;;;;;19.80;98133.00;;;;2078663;28;20743;-49
2022/11/22 02:02:43;;;;;;;1.87;1.43;;;;;19.80;98131.00;;;;2085585;28;20233;-47
2022/11/22 02:03:44;;;;;;;5.50;1.42;;;;;19.70;98135.00;;;;2078031;28;20213;-48
2022/11/22 02:04:45;;;;;;;3.65;1.77;;;;;19.70;98140.00;;;;2082179;28;20230;-49
2022/11/22 02:05:45;;;;;;;3.20;1.47;;;;;19.70;98152.00;;;;2082332;28;20663;-48
2022/11/22 02:06:58;;;;;;;2.50;1.20;;;;;19.70;98157.00;;;;2081096;28;20574;-48
2022/11/22 02:08:02;;;;;;;2.63;1.40;;;;;19.70;98148.00;;;;2077968;28;20300;-47
2022/11/22 02:09:06;;;;;;;2.67;1.67;;;;;19.70;98159.00;;;;2078082;28;20225;-48
2022/11/22 02:10:07;;;;;;;2.35;1.48;;;;;19.70;98159.00;;;;2077624;28;20296;-48
2022/11/22 02:11:08;;;;;;;2.40;1.60;;;;;19.70;98161.00;;;;2077978;28;20218;-48
2022/11/22 02:12:08;;;;;;;2.97;1.70;;;;;19.70;98162.00;;;;2070784;28;21173;-47
2022/11/22 02:13:08;;;;;;;2.90;1.67;;;;;19.70;98156.00;;;;2073937;28;20222;-49
2022/11/22 02:14:09;;;;;;;2.17;1.53;;;;;19.70;98156.00;;;;2078278;28;20311;-48
2022/11/22 02:15:09;;;;;;;2.20;1.13;;;;;19.70;98162.00;;;;2079403;28;20221;-48
2022/11/22 02:16:10;;;;;;;3.05;1.30;;;;;19.70;98159.00;;;;2071588;28;20229;-48
2022/11/22 02:17:10;;;;;;;2.47;1.40;;;;;19.70;98159.00;;;;2077318;28;20224;-48
2022/11/22 02:18:11;;;;;;;3.23;1.60;;;;;19.70;98167.00;;;;2083782;28;20238;-47
2022/11/22 02:19:25;;;;;;;2.10;1.30;;;;;19.70;98160.00;;;;2079630;28;20218;-48
2022/11/22 02:20:25;;;;;;;2.75;1.35;;;;;19.70;98170.00;;;;2079435;28;20300;-47
2022/11/22 02:21:27;;;;;;;2.90;1.30;;;;;19.60;98166.00;;;;2079682;28;20217;-50
2022/11/22 02:22:32;;;;;;;2.67;1.75;;;;;19.70;98164.00;;;;2078843;28;20213;-47
2022/11/22 02:24:01;;;;;;;2.20;1.50;;;;;19.60;98159.00;;;;2082360;28;20220;-48
2022/11/22 02:25:13;;;;;;;2.78;1.40;;;;;19.70;98166.00;;;;2077379;28;20283;-47
2022/11/22 02:26:13;;;;;;;2.95;1.30;;;;;19.70;98159.00;;;;2079262;28;20213;-48
2022/11/22 02:27:14;;;;;;;2.23;1.23;;;;;19.70;98156.00;;;;2071654;28;20218;-47
2022/11/22 02:28:14;;;;;;;3.60;1.40;;;;;19.70;98157.00;;;;2087482;28;20217;-51
2022/11/22 02:29:14;;;;;;;2.00;1.40;;;;;19.60;98156.00;;;;2083123;28;20214;-47
2022/11/22 02:30:15;;;;;;;2.80;1.43;;;;;19.60;98166.00;;;;2079570;28;20252;-50
2022/11/22 02:31:34;;;;;;;2.10;1.40;;;;;19.70;98169.00;;;;2079465;28;20216;-48
2022/11/22 02:32:34;;;;;;;2.80;1.50;;;;;19.60;98169.00;;;;2083115;28;20227;-50
2022/11/22 02:33:34;;;;;;;3.10;1.60;;;;;19.60;98173.00;;;;2080485;28;20708;-50
2022/11/22 02:34:47;;;;;;;3.30;1.40;;;;;19.60;98169.00;;;;2080176;28;20210;-50
2022/11/22 02:35:48;;;;;;;3.63;1.65;;;;;19.60;98167.00;;;;2079764;28;20713;-48
2022/11/22 02:36:50;;;;;;;2.70;1.30;;;;;19.60;98175.00;;;;2080182;28;20206;-48
2022/11/22 02:37:55;;;;;;;3.17;1.70;;;;;19.60;98167.00;;;;2079292;28;20596;-48
2022/11/22 02:38:55;;;;;;;2.13;1.35;;;;;19.60;98171.00;;;;2086277;28;20223;-48
2022/11/22 02:40:02;;;;;;;4.10;1.30;;;;;19.60;98172.00;;;;2079262;28;20763;-48
2022/11/22 02:41:05;;;;;;;2.53;1.58;;;;;19.60;98161.00;;;;2079964;28;20215;-47
2022/11/22 02:42:05;;;;;;;2.70;1.60;;;;;19.60;98171.00;;;;2086720;28;20217;-49
2022/11/22 02:43:07;;;;;;;3.10;1.47;;;;;19.60;98169.00;;;;2079839;28;20206;-48
2022/11/22 02:44:08;;;;;;;2.30;1.60;;;;;19.60;98177.00;;;;2080963;28;20213;-48
2022/11/22 02:45:09;;;;;;;2.57;1.40;;;;;19.60;98170.00;;;;2087791;28;20772;-48
2022/11/22 02:46:10;;;;;;;2.17;1.60;;;;;19.60;98173.00;;;;2087467;28;20217;-49
2022/11/22 02:47:11;;;;;;;4.10;1.45;;;;;19.60;98172.00;;;;2085562;28;20221;-49
2022/11/22 02:48:13;;;;;;;3.83;1.47;;;;;19.60;98174.00;;;;2088226;28;20273;-48
2022/11/22 02:49:18;;;;;;;2.10;1.50;;;;;19.60;98176.00;;;;2088095;28;20331;-50
2022/11/22 02:50:18;;;;;;;2.50;1.35;;;;;19.60;98186.00;;;;2087542;28;20311;-49
2022/11/22 02:51:19;;;;;;;3.20;1.47;;;;;19.60;98178.00;;;;2088289;28;20228;-48
2022/11/22 02:52:19;;;;;;;2.30;1.20;;;;;19.60;98186.00;;;;2087318;28;20213;-49
2022/11/22 02:53:19;;;;;;;2.67;1.40;;;;;19.60;98185.00;;;;2088285;28;20211;-49
2022/11/22 02:54:20;;;;;;;2.43;1.70;;;;;19.60;98188.00;;;;2079337;28;20415;-49
2022/11/22 02:55:20;;;;;;;2.00;1.17;;;;;19.60;98192.00;;;;2083211;28;20211;-47
2022/11/22 02:56:21;;;;;;;2.40;1.10;;;;;19.60;98191.00;;;;2086367;28;20783;-48
2022/11/22 02:57:21;;;;;;;3.23;1.60;;;;;19.60;98198.00;;;;2082804;28;20225;-48
2022/11/22 02:58:21;;;;;;;2.43;1.50;;;;;19.60;98201.00;;;;2084419;28;20224;-48
2022/11/22 02:59:22;;;;;;;2.90;1.20;;;;;19.60;98196.00;;;;2080006;28;20232;-49
2022/11/22 03:00:22;;;;;;;3.40;1.40;;;;;19.60;98198.00;;;;2079913;28;20214;-49
2022/11/22 03:01:22;;;;;;;3.10;1.43;;;;;19.60;98204.00;;;;2080057;28;20244;-48
2022/11/22 03:02:23;;;;;;;2.87;1.30;;;;;19.60;98206.00;;;;2079067;28;20266;-49
2022/11/22 03:03:23;;;;;;;2.63;1.50;;;;;19.60;98202.00;;;;2079140;28;20225;-47
2022/11/22 03:04:23;;;;;;;3.47;1.20;;;;;19.50;98207.00;;;;2079077;28;20249;-47
2022/11/22 03:05:23;;;;;;;3.53;1.60;;;;;19.60;98209.00;;;;2082486;28;20214;-48
2022/11/22 03:06:24;;;;;;;2.70;1.67;;;;;19.60;98205.00;;;;2081206;28;20225;-48
2022/11/22 03:07:24;;;;;;;2.70;1.40;;;;;19.50;98209.00;;;;2079821;28;20289;-47
2022/11/22 03:08:24;;;;;;;2.77;1.40;;;;;19.60;98207.00;;;;2079937;28;20209;-49
2022/11/22 03:09:25;;;;;;;2.73;1.27;;;;;19.60;98202.00;;;;2079781;28;20225;-47
2022/11/22 03:10:26;;;;;;;2.77;1.50;;;;;19.60;98207.00;;;;2080048;28;20237;-47
2022/11/22 03:11:26;;;;;;;2.00;1.00;;;;;19.60;98207.00;;;;2079940;28;20214;-47
2022/11/22 03:12:26;;;;;;;2.60;1.43;;;;;19.50;98214.00;;;;2079978;28;20225;-47
2022/11/22 03:13:26;;;;;;;2.60;1.23;;;;;19.50;98203.00;;;;2088102;28;20236;-48
2022/11/22 03:14:27;;;;;;;2.20;1.10;;;;;19.50;98200.00;;;;2087687;28;20216;-49
2022/11/22 03:15:27;;;;;;;2.43;1.20;;;;;19.60;98200.00;;;;2088159;28;20217;-48
2022/11/22 03:16:29;;;;;;;2.33;1.33;;;;;19.60;98205.00;;;;2080142;28;20210;-47
2022/11/22 03:17:29;;;;;;;1.85;1.10;;;;;19.50;98201.00;;;;2081847;28;20213;-48
2022/11/22 03:18:32;;;;;;;3.13;1.20;;;;;19.50;98208.00;;;;2088127;28;21019;-47
2022/11/22 03:19:33;;;;;;;1.83;0.90;;;;;19.50;98204.00;;;;2083395;28;20988;-48
2022/11/22 03:20:33;;;;;;;2.77;1.30;;;;;19.50;98207.00;;;;2080431;28;20217;-48
2022/11/22 03:21:33;;;;;;;3.90;1.40;;;;;19.50;98196.00;;;;2079028;28;20278;-49
2022/11/22 03:22:33;;;;;;;2.23;1.17;;;;;19.50;98207.00;;;;2082311;28;20226;-48
2022/11/22 03:23:34;;;;;;;2.13;1.13;;;;;19.50;98205.00;;;;2087694;28;20235;-48
2022/11/22 03:24:34;;;;;;;2.33;1.27;;;;;19.50;98207.00;;;;2087836;28;20590;-50
2022/11/22 03:25:38;;;;;;;2.63;1.40;;;;;19.50;98201.00;;;;2087205;28;20292;-47
2022/11/22 03:26:38;;;;;;;2.40;1.20;;;;;19.50;98210.00;;;;2087405;28;20677;-47
2022/11/22 03:27:38;;;;;;;1.97;1.30;;;;;19.50;98208.00;;;;2080169;28;20225;-50
2022/11/22 03:28:38;;;;;;;3.27;1.43;;;;;19.50;98211.00;;;;2080995;28;20645;-49
2022/11/22 03:29:39;;;;;;;2.70;1.30;;;;;19.50;98204.00;;;;2086589;28;20223;-49
2022/11/22 03:30:40;;;;;;;3.40;1.40;;;;;19.50;98207.00;;;;2087936;28;20704;-49
2022/11/22 03:31:40;;;;;;;2.92;1.50;;;;;19.50;98209.00;;;;2083983;28;20224;-48
2022/11/22 03:32:40;;;;;;;2.60;1.27;;;;;19.50;98210.00;;;;2078949;28;20213;-48
2022/11/22 03:33:41;;;;;;;3.10;1.17;;;;;19.40;98216.00;;;;2079735;28;20213;-48
2022/11/22 03:34:41;;;;;;;2.50;1.27;;;;;19.50;98208.00;;;;2079879;28;20256;-49
2022/11/22 03:35:41;;;;;;;3.37;1.27;;;;;19.50;98212.00;;;;2079547;28;20213;-47
2022/11/22 03:36:42;;;;;;;4.33;1.33;;;;;19.50;98215.00;;;;2079553;28;20263;-49
2022/11/22 03:37:42;;;;;;;2.23;1.40;;;;;19.50;98221.00;;;;2079522;28;20221;-49
2022/11/22 03:38:42;;;;;;;3.90;1.50;;;;;19.50;98226.00;;;;2079550;28;20307;-50
2022/11/22 03:39:43;;;;;;;2.10;1.37;;;;;19.50;98229.00;;;;2083054;28;20217;-49
2022/11/22 03:40:46;;;;;;;3.77;1.50;;;;;19.50;98226.00;;;;2086903;28;20602;-49
2022/11/22 03:41:46;;;;;;;2.47;1.50;;;;;19.50;98225.00;;;;2085256;28;20752;-48
2022/11/22 03:42:46;;;;;;;2.83;1.30;;;;;19.40;98219.00;;;;2079335;28;20217;-49
2022/11/22 03:43:47;;;;;;;2.00;1.10;;;;;19.50;98232.00;;;;2079909;28;20274;-48
2022/11/22 03:44:47;;;;;;;2.47;1.20;;;;;19.50;98235.00;;;;2083177;28;20220;-48
2022/11/22 03:45:47;;;;;;;2.20;1.20;;;;;19.50;98236.00;;;;2079814;28;20213;-49
2022/11/22 03:46:48;;;;;;;1.63;1.20;;;;;19.40;98231.00;;;;2079425;28;20250;-47
2022/11/22 03:47:48;;;;;;;4.23;1.20;;;;;19.50;98237.00;;;;2086320;28;20246;-47
2022/11/22 03:48:48;;;;;;;3.17;1.50;;;;;19.50;98233.00;;;;2083208;28;20212;-47
2022/11/22 03:49:49;;;;;;;1.90;1.13;;;;;19.50;98226.00;;;;2086598;28;20251;-49
2022/11/22 03:50:49;;;;;;;2.30;1.57;;;;;19.40;98224.00;;;;2079460;28;20239;-51
2022/11/22 03:51:50;;;;;;;2.57;1.20;;;;;19.40;98226.00;;;;2077146;28;20628;-50
2022/11/22 03:52:50;;;;;;;4.60;1.40;;;;;19.50;98228.00;;;;2079345;28;20701;-49
2022/11/22 03:53:50;;;;;;;2.60;1.33;;;;;19.50;98229.00;;;;2079574;28;20229;-47
2022/11/22 03:54:51;;;;;;;2.50;1.30;;;;;19.40;98234.00;;;;2079538;28;20236;-48
2022/11/22 03:55:51;;;;;;;4.73;1.53;;;;;19.40;98229.00;;;;2079750;28;20237;-50
2022/11/22 03:56:51;;;;;;;2.47;1.30;;;;;19.40;98237.00;;;;2079739;28;20225;-50
2022/11/22 03:57:52;;;;;;;2.90;1.20;;;;;19.40;98244.00;;;;2079284;28;20248;-49
2022/11/22 03:58:52;;;;;;;3.57;1.30;;;;;19.40;98239.00;;;;2084982;28;20219;-48
2022/11/22 03:59:52;;;;;;;2.40;1.10;;;;;19.40;98238.00;;;;2081732;28;20209;-47
2022/11/22 04:00:53;;;;;;;2.70;1.40;;;;;19.40;98246.00;;;;2079556;28;20221;-48
2022/11/22 04:01:53;;;;;;;3.13;1.60;;;;;19.40;98241.00;;;;2078663;28;20217;-49
2022/11/22 04:02:53;;;;;;;4.47;1.73;;;;;19.40;98243.00;;;;2079343;28;20756;-49
2022/11/22 04:03:54;;;;;;;3.53;1.30;;;;;19.40;98245.00;;;;2078943;28;20240;-50
2022/11/22 04:04:54;;;;;;;2.37;1.10;;;;;19.40;98246.00;;;;2079576;28;20224;-49
2022/11/22 04:05:54;;;;;;;2.33;1.50;;;;;19.40;98252.00;;;;2079504;28;20217;-48
2022/11/22 04:06:54;;;;;;;4.23;1.50;;;;;19.40;98254.00;;;;2084256;28;20714;-48
2022/11/22 04:07:58;;;;;;;3.27;1.30;;;;;19.40;98247.00;;;;2081690;28;20222;-48
2022/11/22 04:08:58;;;;;;;2.50;1.15;;;;;19.40;98267.00;;;;2086248;28;20564;-49
2022/11/22 04:09:58;;;;;;;3.90;1.60;;;;;19.40;98247.00;;;;2087583;28;20223;-48
2022/11/22 04:10:59;;;;;;;2.80;1.83;;;;;19.40;98252.00;;;;2087510;28;20217;-49
2022/11/22 04:11:59;;;;;;;3.27;1.30;;;;;19.40;98252.00;;;;2081091;28;20223;-47
2022/11/22 04:13:00;;;;;;;3.63;1.57;;;;;19.40;98262.00;;;;2081934;28;20213;-48
2022/11/22 04:15:19;;;;;;;2.65;1.40;;;;;19.40;98263.00;;;;2087686;28;20212;-48
2022/11/22 04:16:19;;;;;;;2.17;1.20;;;;;19.40;98257.00;;;;2086212;28;20209;-48
2022/11/22 04:17:39;;;;;;;3.73;1.50;;;;;19.40;98261.00;;;;2086101;28;20220;-49
2022/11/22 04:18:39;;;;;;;3.25;1.55;;;;;19.40;98257.00;;;;2074473;28;20255;-49
2022/11/22 04:21:32;;;;;;;3.10;1.60;;;;;19.40;98247.00;;;;2079399;28;20275;-49
2022/11/22 04:22:19;;;;;;;4.07;1.33;;;;;19.40;98259.00;;;;2084096;28;20587;-49
2022/11/22 04:23:20;;;;;;;3.63;1.50;;;;;19.40;98259.00;;;;2087098;28;20216;-49
2022/11/22 04:25:41;;;;;;;3.08;1.10;;;;;19.30;98254.00;;;;2086287;28;20235;-50
2022/11/22 04:26:42;;;;;;;3.47;1.50;;;;;19.40;98254.00;;;;2086774;28;20221;-48
2022/11/22 04:27:42;;;;;;;2.00;1.20;;;;;19.30;98252.00;;;;2087267;28;20229;-51
2022/11/22 04:28:42;;;;;;;2.43;1.20;;;;;19.30;98250.00;;;;2087643;28;20208;-49
2022/11/22 04:29:43;;;;;;;1.73;1.10;;;;;19.30;98252.00;;;;2083483;28;20216;-48
2022/11/22 04:33:20;;;;;;;2.20;1.20;;;;;19.30;98261.00;;;;2079250;28;20221;-49
2022/11/22 04:34:21;;;;;;;2.37;1.33;;;;;19.30;98260.00;;;;2078711;28;20232;-49
2022/11/22 04:35:21;;;;;;;4.27;1.40;;;;;19.40;98261.00;;;;2078866;28;20233;-49
2022/11/22 04:36:21;;;;;;;4.03;1.40;;;;;19.40;98259.00;;;;2083109;28;20274;-49
2022/11/22 04:37:22;;;;;;;5.40;1.60;;;;;19.30;98261.00;;;;2086470;28;20235;-50
2022/11/22 04:38:22;;;;;;;3.13;1.30;;;;;19.40;98262.00;;;;2082592;28;20275;-48
2022/11/22 04:39:22;;;;;;;3.10;1.30;;;;;19.30;98268.00;;;;2079386;28;20222;-49
2022/11/22 04:40:23;;;;;;;4.20;1.30;;;;;19.30;98268.00;;;;2085059;28;20212;-48
2022/11/22 04:41:23;;;;;;;3.43;1.40;;;;;19.20;98271.00;;;;2083764;28;20251;-49
2022/11/22 04:45:01;;;;;;;3.28;1.30;;;;;19.30;98275.00;;;;2078982;28;20225;-49
2022/11/22 04:46:01;;;;;;;1.77;1.10;;;;;19.30;98267.00;;;;2079086;28;20585;-48
2022/11/22 04:47:02;;;;;;;3.20;1.20;;;;;19.30;98269.00;;;;2079293;28;20790;-48
2022/11/22 04:48:02;;;;;;;2.00;1.33;;;;;19.30;98273.00;;;;2078924;28;20689;-50
2022/11/22 04:49:03;;;;;;;3.57;1.30;;;;;19.30;98271.00;;;;2079155;28;20224;-49
2022/11/22 04:52:52;;;;;;;3.57;1.30;;;;;19.30;98270.00;;;;2079118;28;20530;-49
2022/11/22 04:53:02;;;;;;;2.17;1.08;;;;;19.30;98272.00;;;;2086624;28;20208;-50
2022/11/22 04:54:02;;;;;;;3.30;1.40;;;;;19.30;98280.00;;;;2087274;28;20217;-49
2022/11/22 04:55:03;;;;;;;2.67;1.10;;;;;19.30;98278.00;;;;2086649;28;20750;-50
2022/11/22 04:56:03;;;;;;;2.77;1.30;;;;;19.30;98274.00;;;;2082538;28;20649;-50
2022/11/22 04:57:04;;;;;;;2.70;1.30;;;;;19.30;98269.00;;;;2079303;28;20218;-49
2022/11/22 04:58:04;;;;;;;1.70;1.10;;;;;19.30;98267.00;;;;2086365;28;20211;-49
2022/11/22 04:59:04;;;;;;;3.90;1.40;;;;;19.30;98275.00;;;;2079328;28;20201;-55
2022/11/22 05:00:05;;;;;;;5.23;1.57;;;;;19.30;98278.00;;;;2078398;28;20325;-49
2022/11/22 05:01:06;;;;;;;2.90;1.40;;;;;19.30;98273.00;;;;2078517;28;20209;-48
2022/11/22 05:02:06;;;;;;;3.90;1.50;;;;;19.30;98273.00;;;;2078239;28;20440;-50
2022/11/22 05:03:06;;;;;;;4.20;1.07;;;;;19.30;98272.00;;;;2083385;28;20204;-48
2022/11/22 05:04:07;;;;;;;2.17;1.13;;;;;19.20;98272.00;;;;2087246;28;20228;-49
2022/11/22 05:05:08;;;;;;;1.93;1.10;;;;;19.30;98279.00;;;;2083590;28;20229;-49
2022/11/22 05:06:09;;;;;;;3.15;1.20;;;;;19.30;98270.00;;;;2087286;28;20225;-48
2022/11/22 05:07:10;;;;;;;4.18;1.30;;;;;19.30;98273.00;;;;2086371;28;20749;-50
2022/11/22 05:08:10;;;;;;;3.40;1.33;;;;;19.30;98282.00;;;;2081319;28;20222;-49
2022/11/22 05:09:11;;;;;;;2.43;1.00;;;;;19.30;98273.00;;;;2079202;28;20448;-48
2022/11/22 05:10:11;;;;;;;2.50;1.23;;;;;19.20;98282.00;;;;2079148;28;20610;-48
2022/11/22 05:11:11;;;;;;;2.40;1.10;;;;;19.20;98271.00;;;;2083040;28;20220;-49
2022/11/22 05:12:11;;;;;;;5.00;1.87;;;;;19.20;98271.00;;;;2086503;28;20215;-48
2022/11/22 05:13:12;;;;;;;2.90;1.30;;;;;19.20;98278.00;;;;2087071;28;20255;-47
2022/11/22 05:14:12;;;;;;;4.53;1.30;;;;;19.20;98278.00;;;;2084282;28;20221;-49
2022/11/22 05:15:12;;;;;;;4.77;1.20;;;;;19.20;98275.00;;;;2086398;28;20217;-49
2022/11/22 05:16:13;;;;;;;2.40;1.30;;;;;19.20;98279.00;;;;2087165;28;20221;-48
2022/11/22 05:17:13;;;;;;;2.40;1.00;;;;;19.20;98244.00;;;;2085583;28;20220;-50
2022/11/22 05:18:14;;;;;;;3.03;1.00;;;;;19.20;98274.00;;;;2081334;28;20229;-49